DEL08 13.10 39.29153 -75.5944 0.000 0.000 20200806_1020 DEDOT DE 1 & DE 12, Smyrna DE USA current weather conditions

sailwx.info

Wind at 0 knots gusting 6

Air temperature 19.6° C
Dewpoint 18.2° C

Last reported at 2020-Aug-06 12:00 UTC.
Time now 2020-Aug-06 13:11 UTC

Location: N 39°17' W 075°36'.
View on Google Maps.

See reports from other nearby stations

  
Tides and Currents Weather Stations Pressure Air Temp Water Temp Dewpoint Dewpoint Depression Visibility Wind Speed Wind Dir Waves Ship Positions
date/time (UTC)wind fromknots sea level pressurealtimeterstation pressurevisibilityair tempwater tempwave heightnotes
2020-Aug-06 12:00 19.6
2020-Aug-06 11:55 19.4
2020-Aug-06 11:50 050 4 gusting 11 19.4
2020-Aug-06 11:45 015 4 gusting 9 19.6
2020-Aug-06 11:40 025 6 gusting 13 19.9
2020-Aug-06 11:35 015 7 gusting 17 20.2
2020-Aug-06 11:30 290 7 gusting 20 20.2
2020-Aug-06 11:25 280 12 gusting 20 20.1
2020-Aug-06 11:20 270 13 gusting 20 20.6
2020-Aug-06 11:15 290 13 gusting 21 21.6
2020-Aug-06 11:10 285 14 gusting 21 21.6
2020-Aug-06 11:05 215 6 gusting 10 22.1
2020-Aug-06 11:00 275 6 gusting 10 22.9
2020-Aug-06 10:55 040 2 gusting 5 22.9
2020-Aug-06 10:50 090 2 gusting 6 22.9
2020-Aug-06 10:45 070 4 gusting 6 22.9
2020-Aug-06 10:40 060 4 gusting 5 22.9
2020-Aug-06 10:35 065 3 gusting 5 22.9
2020-Aug-06 10:30 075 1 gusting 3 22.9
2020-Aug-06 10:25 130 0 gusting 2 22.9
2020-Aug-06 10:20 050 1 gusting 2 22.9
2020-Aug-06 10:15 050 1 gusting 2 22.8
2020-Aug-06 10:10 22.8
2020-Aug-06 10:05 040 1 gusting 2 22.6
2020-Aug-06 10:00 055 1 gusting 2 22.6
2020-Aug-06 09:55 070 1 gusting 3 22.6
2020-Aug-06 09:50 050 2 gusting 3 22.6
2020-Aug-06 09:45 050 1 gusting 2 22.6
2020-Aug-06 09:40 035 1 gusting 1 22.4
2020-Aug-06 09:35 22.4
2020-Aug-06 09:30 22.4
2020-Aug-06 09:25 22.4
2020-Aug-06 09:20 22.6
2020-Aug-06 09:15 22.6
2020-Aug-06 09:10 045 0 gusting 1 22.6
2020-Aug-06 09:05 035 0 gusting 1 22.6
2020-Aug-06 09:00 040 1 gusting 1 22.6
2020-Aug-06 08:55 22.4
2020-Aug-06 08:50 22.4
2020-Aug-06 08:45 080 0 gusting 1 22.4
2020-Aug-06 08:40 22.4
2020-Aug-06 08:35 22.4
2020-Aug-06 08:30 22.4
2020-Aug-06 08:25 205 0 gusting 0 22.4
2020-Aug-06 08:20 22.4
2020-Aug-06 08:15 22.4
2020-Aug-06 08:10 045 0 gusting 1 22.4
2020-Aug-06 08:05 020 0 gusting 1 22.4
2020-Aug-06 08:00 040 0 gusting 1 22.6
2020-Aug-06 07:55 040 0 gusting 1 22.4
2020-Aug-06 07:50 035 0 gusting 1 22.6
2020-Aug-06 07:45 040 1 gusting 1 22.6
2020-Aug-06 07:40 030 0 gusting 1 22.6
2020-Aug-06 07:35 22.6
2020-Aug-06 07:30 22.8
2020-Aug-06 07:25 115 0 gusting 0 22.8
2020-Aug-06 07:20 22.6
2020-Aug-06 07:15 105 0 gusting 2 22.6
2020-Aug-06 07:10 080 0 gusting 2 22.8
2020-Aug-06 07:05 055 1 gusting 1 22.9
2020-Aug-06 07:00 22.9
2020-Aug-06 06:55 22.9
2020-Aug-06 06:50 23.1
2020-Aug-06 06:45 22.9
2020-Aug-06 06:40 22.9
2020-Aug-06 06:35 22.9
2020-Aug-06 06:30 22.8
2020-Aug-06 06:25 22.9
2020-Aug-06 06:20 22.9
2020-Aug-06 06:15 23.1
2020-Aug-06 06:10 23.1
2020-Aug-06 06:05 23.1
2020-Aug-06 06:00 23.1
2020-Aug-06 05:55 23.2
2020-Aug-06 05:50 23.2
2020-Aug-06 05:45 23.2
2020-Aug-06 05:40 23.2
2020-Aug-06 05:35 23.2
2020-Aug-06 05:30 23.2
2020-Aug-06 05:25 23.4
2020-Aug-06 05:20 23.4
2020-Aug-06 05:15 23.2
2020-Aug-06 05:10 23.2
2020-Aug-06 05:05 23.2
2020-Aug-06 05:00 23.1
2020-Aug-06 04:55 23.2
2020-Aug-06 04:50 23.2
2020-Aug-06 04:45 210 0 gusting 1 23.4
2020-Aug-06 04:40 23.4
2020-Aug-06 04:35 23.4
2020-Aug-06 04:30 23.4
2020-Aug-06 04:25 23.4
2020-Aug-06 04:20 23.6
2020-Aug-06 04:15 210 0 gusting 1 23.6
2020-Aug-06 04:10 175 0 gusting 1 23.8
2020-Aug-06 04:05 23.8
2020-Aug-06 04:00 23.8
2020-Aug-06 03:55 23.9
2020-Aug-06 03:50 23.8
2020-Aug-06 03:45 23.9
2020-Aug-06 03:40 23.9
2020-Aug-06 03:35 23.9
2020-Aug-06 03:30 23.9
2020-Aug-06 03:25 23.9
2020-Aug-06 03:20 300 0 gusting 1 24.1
2020-Aug-06 03:15 280 0 gusting 1 24.1
2020-Aug-06 03:10 24.1
2020-Aug-06 03:05 24.1
2020-Aug-06 03:00 24.1
2020-Aug-06 02:55 220 0 gusting 1 24.1
2020-Aug-06 02:50 230 1 gusting 1 24.1
2020-Aug-06 02:45 24.2
2020-Aug-06 02:40 24.1
2020-Aug-06 02:35 24.2
2020-Aug-06 02:30 24.4
2020-Aug-06 02:25 24.4
2020-Aug-06 02:20 24.4
2020-Aug-06 02:15 24.2
2020-Aug-06 02:10 190 0 gusting 1 24.2
2020-Aug-06 02:05 210 0 gusting 1 24.4
2020-Aug-06 02:00 24.4
2020-Aug-06 01:55 220 0 gusting 1 24.6
2020-Aug-06 01:50 220 0 gusting 1 24.6
2020-Aug-06 01:45 215 0 gusting 1 24.9
2020-Aug-06 01:40 25.1
2020-Aug-06 01:35 25.2
2020-Aug-06 01:30 105 1 gusting 2 25.4
2020-Aug-06 01:25 055 0 gusting 1 25.6
2020-Aug-06 01:20 105 0 gusting 1 25.6
2020-Aug-06 01:15 055 1 gusting 1 25.8
2020-Aug-06 01:10 25.9
2020-Aug-06 01:05 25.9
2020-Aug-06 01:00 105 0 gusting 1 26.1
2020-Aug-06 00:55 055 0 gusting 1 26.2
2020-Aug-06 00:50 26.4
2020-Aug-06 00:45 26.6
2020-Aug-06 00:40 26.6
2020-Aug-06 00:35 26.8
2020-Aug-06 00:30 26.8
2020-Aug-06 00:25 27.1
2020-Aug-06 00:20 265 0 gusting 2 27.2
2020-Aug-06 00:15 210 1 gusting 2 27.4
2020-Aug-06 00:10 210 1 gusting 2 27.6
2020-Aug-06 00:05 210 1 gusting 1 28.1
2020-Aug-06 00:00 28.4
2020-Aug-05 23:55 28.9
2020-Aug-05 23:50 29.4
2020-Aug-05 23:45 29.8
2020-Aug-05 23:40 30.1
2020-Aug-05 23:35 30.2
2020-Aug-05 23:30 215 1 gusting 2 30.2
2020-Aug-05 23:25 215 1 gusting 2 30.4
2020-Aug-05 23:20 30.6
2020-Aug-05 23:15 30.9
2020-Aug-05 23:10 270 1 gusting 3 30.9
2020-Aug-05 23:05 31.1
2020-Aug-05 23:00 225 1 gusting 3 31.1
2020-Aug-05 22:55 31.1
2020-Aug-05 22:50 30.9
2020-Aug-05 22:45 220 1 gusting 2 30.9
2020-Aug-05 22:40 30.9
2020-Aug-05 22:35 285 1 gusting 4 30.9
2020-Aug-05 22:30 205 1 gusting 4 31.1
2020-Aug-05 22:25 200 0 gusting 6 30.8
2020-Aug-05 22:20 280 1 gusting 6 30.8
2020-Aug-05 22:15 215 1 gusting 5 31.2
2020-Aug-05 22:10 265 1 gusting 5 31.2
2020-Aug-05 22:05 240 2 gusting 5 31.4
2020-Aug-05 22:00 270 3 gusting 4 31.2
2020-Aug-05 21:55 230 1 gusting 4 31.4
2020-Aug-05 21:50 220 1 gusting 3 31.4
2020-Aug-05 21:45 205 1 gusting 3 31.4
2020-Aug-05 21:40 285 1 gusting 4 31.2
2020-Aug-05 21:35 300 2 gusting 4 31.1
2020-Aug-05 21:30 355 1 gusting 4 30.9
2020-Aug-05 21:25 305 1 gusting 7 30.8
2020-Aug-05 21:20 290 5 gusting 7 30.4
2020-Aug-05 21:15 215 4 gusting 6 30.9
2020-Aug-05 21:10 300 2 gusting 6 30.9
2020-Aug-05 21:05 285 4 gusting 6 30.9
2020-Aug-05 21:00 31.1
2020-Aug-05 20:55 280 1 gusting 5 30.9
2020-Aug-05 20:50 235 2 gusting 9 30.8
2020-Aug-05 20:45 275 4 gusting 9 30.8
2020-Aug-05 20:40 270 2 gusting 7 30.8
2020-Aug-05 20:35 315 2 gusting 8 30.6
2020-Aug-05 20:30 280 3 gusting 8 30.4
2020-Aug-05 20:25 270 3 gusting 6 30.4
2020-Aug-05 20:20 255 3 gusting 6 30.4
2020-Aug-05 20:15 225 2 gusting 6 30.4
2020-Aug-05 20:10 220 3 gusting 6 30.6
2020-Aug-05 20:05 240 2 gusting 6 30.6
2020-Aug-05 20:00 285 4 gusting 7 30.2
2020-Aug-05 19:55 280 4 gusting 7 30.1
2020-Aug-05 19:50 275 2 gusting 5 30.4
2020-Aug-05 19:45 270 1 gusting 6 30.1
2020-Aug-05 19:40 325 4 gusting 6 30.1
2020-Aug-05 19:35 310 2 gusting 7 30.2
2020-Aug-05 19:30 320 3 gusting 7 30.1
2020-Aug-05 19:25 310 1 gusting 5 30.6
2020-Aug-05 19:20 30.6
2020-Aug-05 19:15 30.4
2020-Aug-05 19:10 275 3 gusting 7 30.1
2020-Aug-05 19:05 300 4 gusting 6 30.1
2020-Aug-05 19:00 285 2 gusting 5 30.1
2020-Aug-05 18:55 300 2 gusting 9 30.1
2020-Aug-05 18:50 285 4 gusting 9 29.9
2020-Aug-05 18:45 290 4 gusting 7 29.9
2020-Aug-05 18:40 310 2 gusting 6 30.2
2020-Aug-05 18:35 340 1 gusting 6 30.1
2020-Aug-05 18:30 30.2
2020-Aug-05 18:25 30.1
2020-Aug-05 18:20 30.1
2020-Aug-05 18:15 270 2 gusting 5 30.1
2020-Aug-05 18:10 030 1 gusting 6 30.1
2020-Aug-05 18:05 335 3 gusting 6 29.9
2020-Aug-05 18:00 240 1 gusting 5 29.9
2020-Aug-05 17:55 285 3 gusting 5 29.9
2020-Aug-05 17:50 30.2
2020-Aug-05 17:45 330 1 gusting 4 30.1
2020-Aug-05 17:40 035 3 gusting 4 30.1
2020-Aug-05 17:35 30.1
2020-Aug-05 17:30 280 1 gusting 5 29.6
2020-Aug-05 17:25 230 2 gusting 7 29.6
2020-Aug-05 17:20 285 3 gusting 7 29.6
2020-Aug-05 17:15 275 2 gusting 6 29.6
2020-Aug-05 17:10 280 2 gusting 5 29.6
2020-Aug-05 17:05 290 3 gusting 5 29.4
2020-Aug-05 17:00 305 2 gusting 5 29.4
2020-Aug-05 16:55 300 2 gusting 5 29.1
2020-Aug-05 16:50 265 3 gusting 5 29.1
2020-Aug-05 16:45 265 2 gusting 5 28.9
2020-Aug-05 16:40 345 2 gusting 5 28.9
2020-Aug-05 16:35 330 2 gusting 5 28.9
2020-Aug-05 16:30 020 1 gusting 5 28.8
2020-Aug-05 16:25 335 2 gusting 5 28.4
2020-Aug-05 16:20 265 4 gusting 5 28.2
2020-Aug-05 16:15 270 2 gusting 5 28.2
2020-Aug-05 16:10 295 3 gusting 5 28.1
2020-Aug-05 16:05 280 1 gusting 6 28.2
2020-Aug-05 16:00 285 3 gusting 6 27.9
2020-Aug-05 15:55 290 3 gusting 6 27.9
2020-Aug-05 15:50 335 1 gusting 4 27.9
2020-Aug-05 15:45 290 3 gusting 5 27.8
2020-Aug-05 15:40 300 3 gusting 5 27.6
2020-Aug-05 15:35 290 0 gusting 3 27.6
2020-Aug-05 15:30 220 1 gusting 3 27.6
2020-Aug-05 15:25 075 1 gusting 4 27.6
2020-Aug-05 15:20 010 1 gusting 5 27.4
2020-Aug-05 15:15 27.1
2020-Aug-05 15:10 340 1 gusting 6 26.9
2020-Aug-05 15:05 275 5 gusting 6 26.6
2020-Aug-05 15:00 300 2 gusting 6 26.4
2020-Aug-05 14:55 280 3 gusting 6 26.4
2020-Aug-05 14:50 280 2 gusting 6 26.4
2020-Aug-05 14:45 030 2 gusting 6 26.4
2020-Aug-05 14:40 270 3 gusting 5 26.2
2020-Aug-05 14:35 325 2 gusting 4 26.1
2020-Aug-05 14:30 060 1 gusting 4 26.1
2020-Aug-05 14:25 285 2 gusting 6 25.9
2020-Aug-05 14:20 330 3 gusting 7 25.8
2020-Aug-05 14:15 295 4 gusting 7 25.6
2020-Aug-05 14:10 310 3 gusting 6 25.6
2020-Aug-05 14:05 265 4 gusting 6 25.6
2020-Aug-05 14:00 285 3 gusting 6 25.4
2020-Aug-05 13:55 310 2 gusting 6 25.4
2020-Aug-05 13:50 270 3 gusting 5 25.4
2020-Aug-05 13:45 280 3 gusting 5 25.2
2020-Aug-05 13:40 295 2 gusting 6 25.1
2020-Aug-05 13:35 345 3 gusting 6 24.9
2020-Aug-05 13:30 295 4 gusting 5 24.9
2020-Aug-05 13:20 335 2 gusting 4 24.8
2020-Aug-05 13:15 24.6
2020-Aug-05 13:10 290 3 gusting 6 24.4
2020-Aug-05 13:05 290 3 gusting 5 24.1
2020-Aug-05 13:00 290 3 gusting 5 23.9
2020-Aug-05 12:55 285 3 gusting 5 23.9
2020-Aug-05 12:50 285 2 gusting 4 23.8
2020-Aug-05 12:45 315 2 gusting 3 23.4
2020-Aug-05 12:40 295 1 gusting 4 23.2
2020-Aug-05 12:35 285 3 gusting 4 22.9
2020-Aug-05 12:30 285 1 gusting 3 22.8
2020-Aug-05 12:25 22.6
2020-Aug-05 12:20 345 1 gusting 4 22.4
2020-Aug-05 12:15 300 2 gusting 4 22.4
2020-Aug-05 12:10 22.2
2020-Aug-05 12:05 335 2 gusting 5 22.1
2020-Aug-05 12:00 22.1
2020-Aug-05 11:55 335 2 gusting 4 21.9
2020-Aug-05 11:50 305 2 gusting 4 21.8
2020-Aug-05 11:45 330 1 gusting 4 21.9
2020-Aug-05 11:40 270 2 gusting 4 21.9
2020-Aug-05 11:35 325 1 gusting 3 21.9
2020-Aug-05 11:30 21.9
2020-Aug-05 11:25 305 1 gusting 3 21.6
2020-Aug-05 11:20 290 1 gusting 3 21.6
2020-Aug-05 11:15 280 1 gusting 3 21.4
2020-Aug-05 11:10 305 0 gusting 3 21.4
2020-Aug-05 11:05 280 2 gusting 3 21.2
2020-Aug-05 11:00 280 1 gusting 3 21.1
2020-Aug-05 10:55 285 2 gusting 3 21.1
2020-Aug-05 10:50 285 2 gusting 3 20.9
2020-Aug-05 10:45 280 2 gusting 3 20.9
2020-Aug-05 10:40 225 0 gusting 2 20.6
2020-Aug-05 10:35 270 0 gusting 2 20.6
2020-Aug-05 10:30 255 1 gusting 2 20.6
2020-Aug-05 10:25 280 1 gusting 2 20.6
2020-Aug-05 10:20 220 0 gusting 1 20.6
2020-Aug-05 10:10 220 0 gusting 1 20.6
2020-Aug-05 10:05 220 0 gusting 1 20.6
2020-Aug-05 09:55 225 0 gusting 1 20.6
2020-Aug-05 09:50 235 1 gusting 3 20.6
2020-Aug-05 09:45 225 1 gusting 3 20.8
2020-Aug-05 09:40 220 1 gusting 3 20.8
2020-Aug-05 09:35 215 1 gusting 3 20.8
2020-Aug-05 09:30 220 1 gusting 3 20.9
2020-Aug-05 09:25 215 1 gusting 2 20.9
2020-Aug-05 09:20 225 1 gusting 3 20.9
2020-Aug-05 09:15 265 1 gusting 3 20.9
2020-Aug-05 09:10 235 1 gusting 2 20.9
2020-Aug-05 09:05 225 1 gusting 3 20.9
2020-Aug-05 09:00 245 1 gusting 4 20.9
2020-Aug-05 08:55 230 1 gusting 4 20.9
2020-Aug-05 08:50 235 1 gusting 3 20.9
2020-Aug-05 08:45 230 1 gusting 3 20.9
2020-Aug-05 08:40 225 1 gusting 3 20.9
2020-Aug-05 08:35 230 1 gusting 2 20.9
2020-Aug-05 08:30 220 1 gusting 2 20.9
2020-Aug-05 08:25 245 1 gusting 2 20.9
2020-Aug-05 08:20 220 1 gusting 2 20.9
2020-Aug-05 08:15 210 1 gusting 3 20.9
2020-Aug-05 08:10 220 1 gusting 3 20.9
2020-Aug-05 08:05 225 1 gusting 3 20.9
2020-Aug-05 08:00 225 2 gusting 3 20.9
2020-Aug-05 07:55 220 1 gusting 2 20.9
2020-Aug-05 07:50 225 1 gusting 1 20.9
2020-Aug-05 07:45 230 0 gusting 2 20.9
2020-Aug-05 07:40 230 0 gusting 2 20.9
2020-Aug-05 07:35 220 0 gusting 2 20.9
2020-Aug-05 07:30 210 1 gusting 2 20.9
2020-Aug-05 07:25 200 0 gusting 2 20.9
2020-Aug-05 07:20 200 1 gusting 2 20.9
2020-Aug-05 07:15 210 1 gusting 1 21.1
2020-Aug-05 07:10 200 0 gusting 1 21.1
2020-Aug-05 07:05 190 0 gusting 1 21.1
2020-Aug-05 07:00 200 0 gusting 0 21.1
2020-Aug-05 06:55 21.1
2020-Aug-05 06:50 21.2
2020-Aug-05 06:45 21.1
2020-Aug-05 06:40 215 0 gusting 2 21.1
2020-Aug-05 06:35 210 1 gusting 2 20.9
2020-Aug-05 06:30 280 1 gusting 2 21.1
2020-Aug-05 06:25 225 0 gusting 2 20.9
2020-Aug-05 06:20 240 1 gusting 3 20.9
2020-Aug-05 06:15 215 2 gusting 3 20.9
2020-Aug-05 06:10 205 1 gusting 3 20.9
2020-Aug-05 06:05 280 2 gusting 3 20.9
2020-Aug-05 06:00 275 2 gusting 3 20.9
2020-Aug-05 05:55 275 0 gusting 2 20.9
2020-Aug-05 05:50 225 1 gusting 4 20.9
2020-Aug-05 05:45 205 2 gusting 4 20.9
2020-Aug-05 05:40 215 2 gusting 3 21.1
2020-Aug-05 05:35 230 1 gusting 3 21.1
2020-Aug-05 05:30 240 1 gusting 3 20.9
2020-Aug-05 05:25 220 2 gusting 5 21.1
2020-Aug-05 05:20 280 0 gusting 5 21.1
2020-Aug-05 05:15 210 2 gusting 6 21.1
2020-Aug-05 05:10 215 3 gusting 6 21.1
2020-Aug-05 05:05 215 3 gusting 4 21.1
2020-Aug-05 05:00 270 2 gusting 5 21.1
2020-Aug-05 04:55 240 2 gusting 6 21.1
2020-Aug-05 04:50 250 3 gusting 6 21.2
2020-Aug-05 04:45 220 3 gusting 6 21.4
2020-Aug-05 04:40 240 3 gusting 6 21.6
2020-Aug-05 04:35 245 3 gusting 6 21.6
2020-Aug-05 04:30 245 4 gusting 9 21.8
2020-Aug-05 04:25 240 5 gusting 9 21.8
2020-Aug-05 04:20 235 5 gusting 9 21.6
2020-Aug-05 04:15 250 1 gusting 3 21.4
2020-Aug-05 04:10 205 1 gusting 4 21.4
2020-Aug-05 04:05 240 1 gusting 4 21.6
2020-Aug-05 04:00 155 1 gusting 4 21.6
2020-Aug-05 03:55 21.6
2020-Aug-05 03:50 21.8
2020-Aug-05 03:45 220 2 gusting 6 21.9
2020-Aug-05 03:40 265 3 gusting 9 22.4
2020-Aug-05 03:35 275 4 gusting 15 22.9
2020-Aug-05 03:30 275 8 gusting 15 23.6
2020-Aug-05 03:25 235 3 gusting 16 24.1
2020-Aug-05 03:20 280 10 gusting 16 24.1
2020-Aug-05 03:15 270 6 gusting 12 24.4
2020-Aug-05 03:10 275 6 gusting 9 24.4
2020-Aug-05 03:05 210 1 gusting 3 24.4
2020-Aug-05 03:00 240 1 gusting 3 24.4
2020-Aug-05 02:55 230 2 gusting 3 24.6
2020-Aug-05 02:50 275 1 gusting 6 24.8
2020-Aug-05 02:45 275 3 gusting 6 24.8
2020-Aug-05 02:40 285 3 gusting 5 24.8
2020-Aug-05 02:35 220 1 gusting 3 24.8
2020-Aug-05 02:30 225 1 gusting 3 24.8
2020-Aug-05 02:25 24.9
2020-Aug-05 02:20 190 1 gusting 4 24.9
2020-Aug-05 02:15 230 2 gusting 4 25.1
2020-Aug-05 02:10 205 2 gusting 5 25.1
2020-Aug-05 02:05 205 2 gusting 7 25.4
2020-Aug-05 02:00 215 4 gusting 7 25.4
2020-Aug-05 01:55 210 4 gusting 7 25.6
2020-Aug-05 01:50 225 5 gusting 7 25.6
2020-Aug-05 01:45 225 3 gusting 7 25.9
2020-Aug-05 01:40 220 5 gusting 8 25.9
2020-Aug-05 01:35 215 3 gusting 8 26.1
2020-Aug-05 01:30 215 3 gusting 6 25.9
2020-Aug-05 01:25 195 2 gusting 6 26.1
2020-Aug-05 01:20 210 3 gusting 5 26.1
2020-Aug-05 01:15 205 2 gusting 4 25.9
2020-Aug-05 01:10 155 2 gusting 4 26.1
2020-Aug-05 01:05 26.1
2020-Aug-05 01:00 190 1 gusting 3 26.1
2020-Aug-05 00:55 185 0 gusting 4 26.1
2020-Aug-05 00:50 205 2 gusting 4 26.1
2020-Aug-05 00:45 26.2
2020-Aug-05 00:40 205 1 gusting 3 26.2
2020-Aug-05 00:35 215 1 gusting 3 26.4
2020-Aug-05 00:30 26.4
2020-Aug-05 00:25 200 0 gusting 3 26.6
2020-Aug-05 00:20 195 1 gusting 3 26.8
2020-Aug-05 00:15 205 1 gusting 4 26.9
2020-Aug-05 00:10 205 2 gusting 4 27.1
2020-Aug-05 00:05 27.2
2020-Aug-05 00:00 27.4
2020-Aug-04 23:55 27.6
2020-Aug-04 23:50 205 1 gusting 3 27.9
2020-Aug-04 23:45 205 2 gusting 4 28.1
2020-Aug-04 23:40 200 2 gusting 4 28.1
2020-Aug-04 23:35 28.4
2020-Aug-04 23:30 220 2 gusting 5 28.6
2020-Aug-04 23:25 200 2 gusting 6 28.8
2020-Aug-04 23:20 220 3 gusting 8 28.6
2020-Aug-04 23:15 225 4 gusting 8 29.1
2020-Aug-04 23:10 220 4 gusting 7 29.6
2020-Aug-04 23:05 200 1 gusting 5 29.9
2020-Aug-04 23:00 225 3 gusting 6 29.9
2020-Aug-04 22:55 210 1 gusting 7 29.8
2020-Aug-04 22:50 220 3 gusting 8 29.4
2020-Aug-04 22:45 235 4 gusting 9 29.4
2020-Aug-04 22:40 205 4 gusting 9 29.8
2020-Aug-04 22:35 210 5 gusting 9 29.9
2020-Aug-04 22:30 220 2 gusting 8 29.9
2020-Aug-04 22:25 215 5 gusting 9 29.9
2020-Aug-04 22:20 215 6 gusting 9 29.8
2020-Aug-04 22:15 205 2 gusting 9 29.6
2020-Aug-04 22:10 220 4 gusting 9 29.4
2020-Aug-04 22:05 220 5 gusting 10 29.2
2020-Aug-04 22:00 220 3 gusting 10 29.6
2020-Aug-04 21:55 225 6 gusting 12 29.6
2020-Aug-04 21:50 205 5 gusting 12 29.9
2020-Aug-04 21:45 215 7 gusting 9 29.9
2020-Aug-04 21:40 215 3 gusting 9 30.1
2020-Aug-04 21:35 210 3 gusting 9 29.9
2020-Aug-04 21:30 215 3 gusting 8 29.9
2020-Aug-04 21:25 215 4 gusting 9 29.9
2020-Aug-04 21:20 225 3 gusting 11 29.6
2020-Aug-04 21:15 215 5 gusting 11 29.4
2020-Aug-04 21:10 225 5 gusting 10 29.2
2020-Aug-04 21:05 235 5 gusting 8 29.4
2020-Aug-04 21:00 220 5 gusting 10 29.4
2020-Aug-04 20:55 215 5 gusting 10 29.4
2020-Aug-04 20:50 215 4 gusting 11 29.4
2020-Aug-04 20:45 260 4 gusting 11 28.9
2020-Aug-04 20:40 210 6 gusting 11 28.8
2020-Aug-04 20:35 220 4 gusting 9 28.9
2020-Aug-04 20:30 220 3 gusting 9 28.8
2020-Aug-04 20:25 245 5 gusting 11 28.6
2020-Aug-04 20:20 210 3 gusting 11 28.4
2020-Aug-04 20:15 230 5 gusting 10 28.1
2020-Aug-04 20:10 255 6 gusting 10 27.9
2020-Aug-04 20:05 225 5 gusting 14 27.9
2020-Aug-04 20:00 250 6 gusting 14 27.6
2020-Aug-04 19:55 220 8 gusting 14 27.1
2020-Aug-04 19:50 245 6 gusting 11 26.9
2020-Aug-04 19:45 240 5 gusting 11 26.9
2020-Aug-04 19:40 215 4 gusting 10 26.8
2020-Aug-04 19:35 225 4 gusting 10 26.9
2020-Aug-04 19:30 245 4 gusting 13 26.2
2020-Aug-04 19:25 215 6 gusting 13 26.2
2020-Aug-04 19:20 235 4 gusting 10 26.6
2020-Aug-04 19:15 250 6 gusting 13 26.9
2020-Aug-04 19:10 275 7 gusting 13 26.6
2020-Aug-04 19:05 265 8 gusting 13 26.6
2020-Aug-04 19:00 215 5 gusting 13 26.9
2020-Aug-04 18:55 240 5 gusting 9 26.9
2020-Aug-04 18:50 210 5 gusting 16 26.6
2020-Aug-04 18:45 250 7 gusting 16 26.4
2020-Aug-04 18:40 230 8 gusting 16 26.4
2020-Aug-04 18:35 240 8 gusting 13 26.1
2020-Aug-04 18:30 260 8 gusting 13 26.4
2020-Aug-04 18:25 255 5 gusting 20 26.2
2020-Aug-04 18:20 255 8 gusting 20 25.9
2020-Aug-04 18:15 265 7 gusting 23 25.9
2020-Aug-04 18:10 275 12 gusting 23 25.6
2020-Aug-04 18:05 225 9 gusting 15 25.6
2020-Aug-04 18:00 260 7 gusting 14 25.2
2020-Aug-04 17:55 235 5 gusting 14 25.1
2020-Aug-04 17:50 215 6 gusting 14 25.1
2020-Aug-04 17:45 255 7 gusting 14 24.6
2020-Aug-04 17:40 245 7 gusting 14 23.9
2020-Aug-04 17:35 250 6 gusting 14 23.6
2020-Aug-04 17:30 240 5 gusting 10 23.4
2020-Aug-04 17:25 225 6 gusting 14 23.1
2020-Aug-04 17:20 240 5 gusting 14 22.8
2020-Aug-04 17:15 255 8 gusting 14 22.8
2020-Aug-04 17:10 235 7 gusting 14 23.2